Time;durP1;ratioP1;P1;durP2;ratioP2;P2;SDS_P1;SDS_P2;PMS_P1;PMS_P2;Temp;Humidity;BMP_temperature;BMP_pressure;BME280_temperature;BME280_humidity;BME280_pressure;Samples;Min_cycle;Max_cycle;Signal;HPM_P1;HPM_P2
2023/01/12 00:00:55;;;;;;;9.20;1.20;;;4.40;99.90;;;;;;5044266;28;20041;-70
2023/01/12 00:03:21;;;;;;;5.70;1.75;;;4.30;99.90;;;;;;5041805;28;20040;-70
2023/01/12 00:05:46;;;;;;;6.30;1.00;;;4.30;99.90;;;;;;5046860;28;20473;-69
2023/01/12 00:08:12;;;;;;;5.93;1.20;;;4.20;99.90;;;;;;5049313;28;20052;-70
2023/01/12 00:10:38;;;;;;;7.32;1.40;;;4.20;99.90;;;;;;5041394;28;20029;-69
2023/01/12 00:13:03;;;;;;;7.30;1.30;;;4.20;99.90;;;;;;5047329;28;20045;-70
2023/01/12 00:16:33;;;;;;;8.05;1.20;;;4.10;99.90;;;;;;5040810;28;20095;-70
2023/01/12 00:18:20;;;;;;;5.43;1.58;;;4.10;99.90;;;;;;5042560;28;20033;-70
2023/01/12 00:20:47;;;;;;;9.35;1.75;;;4.10;99.90;;;;;;5050233;28;20400;-70
2023/01/12 00:23:12;;;;;;;4.93;1.30;;;4.10;99.90;;;;;;5047750;28;20085;-69
2023/01/12 00:25:38;;;;;;;5.07;1.58;;;4.10;99.90;;;;;;5053357;28;20034;-69
2023/01/12 00:28:03;;;;;;;8.40;1.52;;;4.20;99.90;;;;;;5045605;28;20032;-70
2023/01/12 00:30:29;;;;;;;12.48;1.70;;;4.40;99.90;;;;;;5046870;28;20025;-69
2023/01/12 00:32:55;;;;;;;5.50;1.17;;;4.50;99.90;;;;;;5044707;28;20408;-69
2023/01/12 00:35:20;;;;;;;6.78;1.42;;;4.50;99.90;;;;;;5036207;28;20032;-70
2023/01/12 00:37:46;;;;;;;9.35;1.33;;;4.60;99.90;;;;;;5049344;28;20036;-70
2023/01/12 00:40:11;;;;;;;7.05;1.83;;;4.60;99.90;;;;;;5048133;28;20509;-70
2023/01/12 00:45:21;;;;;;;5.63;1.52;;;4.70;99.90;;;;;;5038493;28;20662;-69
2023/01/12 00:47:47;;;;;;;2.33;1.00;;;4.80;99.90;;;;;;5038726;28;20037;-69
2023/01/12 00:50:13;;;;;;;12.10;2.65;;;4.80;99.90;;;;;;5037758;28;20432;-69
2023/01/12 00:52:39;;;;;;;2.45;1.08;;;4.90;99.90;;;;;;5043963;28;20389;-68
2023/01/12 00:55:05;;;;;;;15.60;1.88;;;4.90;99.90;;;;;;5044573;28;20025;-68
2023/01/12 00:57:31;;;;;;;6.93;1.30;;;5.10;99.90;;;;;;5045955;28;20119;-69
2023/01/12 00:59:58;;;;;;;10.48;1.30;;;5.20;99.90;;;;;;5046588;28;20096;-69
2023/01/12 01:02:25;;;;;;;5.78;1.10;;;5.40;99.90;;;;;;5041660;28;20025;-69
2023/01/12 01:04:51;;;;;;;7.32;1.60;;;5.60;99.90;;;;;;5045469;28;20040;-69
2023/01/12 01:07:17;;;;;;;5.05;1.30;;;5.70;99.90;;;;;;5048626;28;20033;-70
2023/01/12 01:09:43;;;;;;;7.88;1.30;;;5.90;99.90;;;;;;5048189;28;20107;-69
2023/01/12 01:12:09;;;;;;;8.82;1.63;;;6.00;99.90;;;;;;5044320;28;20189;-69
2023/01/12 01:14:35;;;;;;;6.05;1.30;;;6.10;99.90;;;;;;5051318;28;20052;-69
2023/01/12 01:17:01;;;;;;;7.53;1.20;;;6.20;99.90;;;;;;5052717;28;20033;-69
2023/01/12 01:19:26;;;;;;;8.95;1.30;;;6.20;99.90;;;;;;5046830;28;20057;-69
2023/01/12 01:21:52;;;;;;;6.93;1.52;;;6.30;99.90;;;;;;5047454;28;20206;-69
2023/01/12 01:24:17;;;;;;;5.03;0.95;;;6.20;99.90;;;;;;5044811;28;20032;-69
2023/01/12 01:26:43;;;;;;;6.25;1.27;;;6.20;99.90;;;;;;5036113;28;20032;-69
2023/01/12 01:29:09;;;;;;;6.70;1.45;;;6.30;99.90;;;;;;5047982;28;20029;-69
2023/01/12 01:31:35;;;;;;;7.07;1.15;;;6.20;99.90;;;;;;5044852;28;20043;-69
2023/01/12 01:34:00;;;;;;;5.22;0.93;;;6.20;99.90;;;;;;5050676;28;20431;-69
2023/01/12 01:36:26;;;;;;;8.23;1.73;;;6.10;99.90;;;;;;5046511;28;20030;-69
2023/01/12 01:38:51;;;;;;;6.80;1.23;;;6.10;99.90;;;;;;5051034;28;20025;-70
2023/01/12 01:41:23;;;;;;;6.28;1.00;;;6.20;99.90;;;;;;5044899;28;20506;-69
2023/01/12 01:43:53;;;;;;;6.38;1.10;;;6.30;99.90;;;;;;5047403;28;20037;-69
2023/01/12 01:46:34;;;;;;;;;;;6.40;99.90;;;;;;5042234;28;20045;-69
2023/01/12 01:49:11;;;;;;;7.65;1.25;;;6.40;99.90;;;;;;5044484;28;19920;-69
2023/01/12 01:51:37;;;;;;;6.95;1.10;;;6.40;99.90;;;;;;5044002;28;20116;-70
2023/01/12 01:54:04;;;;;;;6.57;0.90;;;6.40;99.90;;;;;;5053273;28;20104;-69
2023/01/12 01:56:32;;;;;;;7.05;1.00;;;6.40;99.90;;;;;;5048404;28;20191;-69
2023/01/12 01:59:05;;;;;;;9.13;1.27;;;6.50;99.90;;;;;;5044132;28;20103;-69
2023/01/12 02:01:31;;;;;;;10.65;1.90;;;6.50;99.90;;;;;;5044010;28;20079;-69
2023/01/12 02:03:57;;;;;;;4.85;0.90;;;6.50;99.90;;;;;;5045530;28;20071;-70
2023/01/12 02:06:25;;;;;;;6.07;1.70;;;6.50;99.90;;;;;;5050301;28;20029;-70
2023/01/12 02:08:59;;;;;;;9.02;1.40;;;6.50;99.90;;;;;;5042463;28;20063;-70
2023/01/12 02:17:17;;;;;;;9.45;1.30;;;6.60;99.90;;;;;;5045176;28;20036;-70
2023/01/12 02:20:08;;;;;;;9.82;1.60;;;6.60;99.90;;;;;;5042801;28;20033;-70
2023/01/12 02:22:43;;;;;;;11.15;2.13;;;6.70;99.90;;;;;;5041537;28;20044;-69
2023/01/12 02:25:14;;;;;;;6.47;1.33;;;6.70;99.90;;;;;;5047386;28;20377;-70
2023/01/12 02:27:48;;;;;;;7.85;1.30;;;6.70;99.90;;;;;;5051087;28;20032;-70
2023/01/12 02:30:48;;;;;;;6.57;1.60;;;6.70;99.90;;;;;;5049012;28;20461;-69
2023/01/12 02:33:17;;;;;;;;;;;6.70;99.90;;;;;;5041217;28;20469;-69
2023/01/12 02:35:49;;;;;;;9.35;1.38;;;6.70;99.90;;;;;;5050462;28;19973;-70
2023/01/12 02:38:25;;;;;;;5.93;1.05;;;6.70;99.90;;;;;;5047846;28;20385;-69
2023/01/12 02:41:06;;;;;;;6.80;1.38;;;6.80;99.90;;;;;;5046542;28;20021;-70
2023/01/12 02:43:35;;;;;;;7.18;1.55;;;6.80;99.90;;;;;;5042384;28;20483;-69
2023/01/12 02:46:13;;;;;;;9.02;1.58;;;6.70;99.90;;;;;;5050867;28;20029;-69
2023/01/12 02:48:41;;;;;;;8.13;1.90;;;6.70;99.90;;;;;;5042393;28;20036;-69
2023/01/12 02:51:22;;;;;;;8.18;1.33;;;6.80;99.90;;;;;;5041112;28;20037;-69
2023/01/12 02:53:54;;;;;;;7.13;1.67;;;6.80;99.90;;;;;;5046898;28;20393;-68
2023/01/12 02:56:43;;;;;;;9.55;1.35;;;6.80;99.90;;;;;;5043036;28;20022;-69
2023/01/12 02:59:15;;;;;;;7.10;2.60;;;6.80;99.90;;;;;;5041006;28;20021;-70
2023/01/12 03:01:43;;;;;;;10.75;2.33;;;6.70;99.90;;;;;;5040276;28;20088;-69
2023/01/12 03:04:10;;;;;;;5.50;1.25;;;6.70;99.90;;;;;;5046160;28;20088;-70
2023/01/12 03:06:46;;;;;;;6.53;1.27;;;6.70;99.90;;;;;;5048271;28;20112;-70
2023/01/12 03:09:16;;;;;;;9.23;1.85;;;6.70;99.90;;;;;;5043574;28;20037;-69
2023/01/12 03:11:45;;;;;;;11.88;1.60;;;6.60;99.90;;;;;;5041731;28;20036;-69
2023/01/12 03:14:12;;;;;;;10.85;1.38;;;6.60;99.90;;;;;;5049158;28;20417;-69
2023/01/12 03:16:39;;;;;;;11.18;2.00;;;6.60;99.90;;;;;;5048981;28;20135;-69
2023/01/12 03:19:16;;;;;;;9.27;1.23;;;6.50;99.90;;;;;;5043482;28;20037;-69
2023/01/12 03:21:52;;;;;;;8.77;1.88;;;6.50;99.90;;;;;;5046153;28;20035;-70
2023/01/12 03:24:24;;;;;;;7.68;1.45;;;6.50;99.90;;;;;;5047020;28;20090;-70
2023/01/12 03:26:53;;;;;;;11.15;1.35;;;6.50;99.90;;;;;;5040983;28;20028;-69
2023/01/12 03:29:28;;;;;;;7.43;1.55;;;6.50;99.90;;;;;;5044799;28;20017;-70
2023/01/12 03:31:55;;;;;;;6.93;1.60;;;6.50;99.90;;;;;;5041109;28;20029;-70
2023/01/12 03:34:22;;;;;;;18.65;2.47;;;6.50;99.90;;;;;;5042343;28;20147;-69
2023/01/12 03:37:10;;;;;;;6.60;1.35;;;6.50;99.90;;;;;;5040598;28;20029;-69
2023/01/12 03:40:07;;;;;;;4.63;1.42;;;6.40;99.90;;;;;;5041605;28;20045;-70
2023/01/12 03:42:42;;;;;;;8.52;1.80;;;6.30;99.90;;;;;;5021041;28;20091;-69
2023/01/12 03:45:29;;;;;;;11.20;1.50;;;6.40;99.90;;;;;;5038691;28;20116;-70
2023/01/12 03:48:07;;;;;;;16.52;2.20;;;6.40;99.90;;;;;;5038221;28;20864;-70
2023/01/12 03:50:40;;;;;;;8.00;1.60;;;6.30;99.90;;;;;;5042214;28;20034;-70
2023/01/12 03:53:06;;;;;;;9.00;1.83;;;6.30;99.90;;;;;;5043007;28;20033;-69
2023/01/12 03:55:34;;;;;;;8.45;1.25;;;6.30;99.90;;;;;;5039108;28;20037;-70
2023/01/12 03:58:01;;;;;;;7.32;1.77;;;6.30;99.90;;;;;;5040250;28;20091;-70
2023/01/12 04:00:28;;;;;;;11.18;1.58;;;6.40;99.90;;;;;;5039712;28;20076;-70
2023/01/12 04:03:14;;;;;;;5.38;1.58;;;6.50;99.90;;;;;;5036534;28;20469;-71
2023/01/12 04:05:40;;;;;;;11.15;1.50;;;6.40;99.90;;;;;;5040873;28;20133;-70
2023/01/12 04:08:07;;;;;;;8.48;2.03;;;6.50;99.90;;;;;;5039685;28;20108;-70
2023/01/12 04:10:33;;;;;;;10.60;1.67;;;6.60;99.90;;;;;;5038429;28;20436;-70
2023/01/12 04:12:58;;;;;;;9.40;2.10;;;6.70;99.90;;;;;;5036634;28;20029;-70
2023/01/12 04:15:24;;;;;;;8.15;1.90;;;6.60;99.90;;;;;;5037306;28;20843;-70
2023/01/12 04:17:49;;;;;;;13.93;1.33;;;6.80;99.90;;;;;;5037857;28;20022;-70
2023/01/12 04:20:15;;;;;;;7.90;1.73;;;6.80;99.90;;;;;;5038242;28;20381;-70
2023/01/12 04:22:42;;;;;;;8.82;1.48;;;6.90;99.90;;;;;;5042306;28;20036;-70
2023/01/12 04:25:18;;;;;;;10.90;1.33;;;7.00;99.90;;;;;;5039657;28;20037;-70
2023/01/12 04:27:48;;;;;;;7.90;1.48;;;7.00;99.90;;;;;;5037583;28;20138;-70
2023/01/12 04:30:17;;;;;;;11.23;1.63;;;7.00;99.90;;;;;;5042281;28;20025;-70
2023/01/12 04:32:43;;;;;;;15.05;1.67;;;7.00;99.90;;;;;;5039231;28;20048;-71
2023/01/12 04:35:13;;;;;;;12.77;1.60;;;7.10;99.90;;;;;;5041752;28;20025;-70
2023/01/12 04:37:39;;;;;;;19.92;2.42;;;7.00;99.90;;;;;;5038484;28;20040;-70
2023/01/12 04:40:06;;;;;;;8.02;1.60;;;7.00;99.90;;;;;;5038645;28;20061;-70
2023/01/12 04:45:16;;;;;;;9.45;1.98;;;7.10;99.90;;;;;;5046995;28;20032;-70
2023/01/12 04:47:41;;;;;;;9.00;1.52;;;7.10;99.90;;;;;;5038488;28;20042;-70
2023/01/12 04:50:08;;;;;;;6.65;1.52;;;7.20;99.90;;;;;;5045001;28;20021;-70
2023/01/12 04:52:34;;;;;;;14.65;1.42;;;7.10;99.90;;;;;;5049193;28;20033;-70
2023/01/12 04:55:00;;;;;;;15.95;1.63;;;7.10;99.90;;;;;;5039810;28;20025;-70
2023/01/12 04:57:26;;;;;;;6.82;1.70;;;7.10;99.90;;;;;;5048993;28;20454;-70
2023/01/12 04:59:51;;;;;;;8.95;1.35;;;7.10;99.90;;;;;;5041637;28;20680;-70
2023/01/12 05:02:17;;;;;;;14.05;1.63;;;7.00;99.90;;;;;;5044581;28;20025;-70
2023/01/12 05:04:44;;;;;;;14.05;1.85;;;7.10;99.90;;;;;;5048006;28;20036;-70
2023/01/12 05:07:10;;;;;;;13.30;2.60;;;7.10;99.90;;;;;;5043745;28;20029;-70
2023/01/12 05:12:20;;;;;;;11.10;1.83;;;7.20;99.90;;;;;;5038658;28;20076;-70
2023/01/12 05:14:46;;;;;;;11.35;1.73;;;7.20;99.90;;;;;;5042452;28;20073;-70
2023/01/12 05:17:11;;;;;;;11.27;1.63;;;7.20;99.90;;;;;;5042293;28;20190;-70
2023/01/12 05:19:37;;;;;;;10.18;1.65;;;7.20;99.90;;;;;;5038324;28;20037;-70
2023/01/12 05:22:02;;;;;;;6.40;1.75;;;7.30;99.90;;;;;;5040480;28;20021;-70
2023/01/12 05:24:28;;;;;;;14.38;2.75;;;7.30;99.90;;;;;;5047066;28;20029;-70
2023/01/12 05:26:53;;;;;;;8.77;2.22;;;7.40;99.90;;;;;;5048844;28;20028;-70
2023/01/12 05:29:19;;;;;;;10.80;1.77;;;7.40;99.90;;;;;;5035328;28;20056;-70
2023/01/12 05:31:46;;;;;;;8.90;2.08;;;7.40;99.90;;;;;;5046672;28;20140;-70
2023/01/12 05:34:12;;;;;;;10.82;1.80;;;7.40;99.90;;;;;;5040974;28;20120;-70
2023/01/12 05:36:38;;;;;;;13.15;1.88;;;7.50;99.90;;;;;;5040202;28;20083;-70
2023/01/12 05:39:04;;;;;;;18.30;2.20;;;7.50;99.90;;;;;;5046960;28;20446;-70
2023/01/12 05:41:29;;;;;;;16.98;1.83;;;7.50;99.90;;;;;;5047336;28;20033;-71
2023/01/12 05:43:55;;;;;;;9.30;2.33;;;7.60;99.90;;;;;;5040167;28;20401;-71
2023/01/12 05:46:22;;;;;;;13.55;2.22;;;7.60;99.90;;;;;;5043905;28;20038;-70
2023/01/12 05:48:49;;;;;;;8.52;1.80;;;7.70;99.90;;;;;;5047207;28;20080;-70
2023/01/12 05:51:15;;;;;;;16.63;2.22;;;7.70;99.90;;;;;;5051276;28;20033;-70
2023/01/12 05:53:41;;;;;;;6.30;1.40;;;7.80;99.90;;;;;;5048649;28;20036;-70
2023/01/12 05:56:08;;;;;;;10.23;1.83;;;7.80;99.90;;;;;;5048716;28;20377;-70
2023/01/12 05:58:34;;;;;;;15.27;2.92;;;7.80;99.90;;;;;;5043753;28;20450;-70
2023/01/12 06:00:59;;;;;;;12.07;1.65;;;7.80;99.90;;;;;;5049492;28;20082;-69
2023/01/12 06:03:25;;;;;;;14.57;1.70;;;7.80;99.90;;;;;;5042577;28;20049;-69
2023/01/12 06:05:54;;;;;;;10.60;1.88;;;7.80;99.90;;;;;;5046210;28;20496;-68
2023/01/12 06:08:20;;;;;;;10.70;1.98;;;7.80;99.90;;;;;;5042219;28;20709;-69
2023/01/12 06:10:46;;;;;;;15.20;1.92;;;7.70;99.90;;;;;;5040114;28;20053;-69
2023/01/12 06:16:03;;;;;;;11.82;1.52;;;7.50;99.90;;;;;;5042829;28;20135;-67
2023/01/12 06:18:32;;;;;;;11.35;2.20;;;7.50;99.90;;;;;;5044323;28;20033;-71
2023/01/12 06:20:58;;;;;;;11.98;1.95;;;7.50;99.90;;;;;;5039747;28;20029;-69
2023/01/12 06:23:24;;;;;;;10.32;1.65;;;7.50;99.90;;;;;;5040509;28;20094;-70
2023/01/12 06:25:49;;;;;;;7.63;1.45;;;7.50;99.90;;;;;;5042061;28;20020;-69
2023/01/12 06:28:16;;;;;;;9.27;2.03;;;7.50;99.90;;;;;;5041320;28;20101;-71
2023/01/12 06:30:41;;;;;;;12.98;1.90;;;7.50;99.90;;;;;;5039966;28;20485;-70
2023/01/12 06:33:07;;;;;;;7.15;1.40;;;7.60;99.90;;;;;;5044684;28;20171;-70
2023/01/12 06:35:33;;;;;;;7.63;1.92;;;7.50;99.90;;;;;;5046445;28;20037;-71
2023/01/12 06:37:58;;;;;;;9.75;1.77;;;7.50;99.90;;;;;;5048873;28;20029;-71
2023/01/12 06:40:24;;;;;;;12.70;1.77;;;7.50;99.90;;;;;;5043926;28;20102;-72
2023/01/12 06:42:49;;;;;;;11.73;1.10;;;7.50;99.90;;;;;;5040426;28;20033;-70
2023/01/12 06:45:15;;;;;;;10.73;1.85;;;7.50;99.90;;;;;;5048332;28;20041;-70
2023/01/12 06:47:49;;;;;;;9.75;1.77;;;7.50;99.90;;;;;;5040392;28;20061;-69
2023/01/12 06:50:15;;;;;;;9.32;1.88;;;7.60;99.90;;;;;;5045514;28;20033;-69
2023/01/12 06:52:41;;;;;;;11.75;2.15;;;7.60;99.90;;;;;;5049395;28;20119;-68
2023/01/12 06:55:07;;;;;;;11.25;1.92;;;7.60;99.90;;;;;;5036917;28;20096;-71
2023/01/12 06:57:33;;;;;;;8.43;1.75;;;7.70;99.90;;;;;;5041174;28;20025;-75
2023/01/12 06:59:58;;;;;;;12.05;2.30;;;7.70;99.90;;;;;;5049704;28;20100;-67
2023/01/12 07:02:24;;;;;;;5.57;1.30;;;7.70;99.90;;;;;;5046588;28;20083;-67
2023/01/12 07:04:49;;;;;;;7.65;1.58;;;7.80;99.90;;;;;;5047045;28;20386;-70
2023/01/12 07:07:15;;;;;;;11.48;1.77;;;7.80;99.90;;;;;;5043953;28;20032;-69
2023/01/12 07:09:40;;;;;;;11.15;1.98;;;7.70;99.90;;;;;;5042121;28;20025;-70
2023/01/12 07:12:06;;;;;;;10.88;2.15;;;7.70;99.90;;;;;;5045620;28;20056;-69
2023/01/12 07:14:32;;;;;;;10.82;1.70;;;7.80;99.90;;;;;;5048072;28;20061;-69
2023/01/12 07:16:58;;;;;;;9.20;1.85;;;7.80;99.90;;;;;;5040790;28;20091;-69
2023/01/12 07:19:23;;;;;;;11.75;1.65;;;7.80;99.90;;;;;;5042663;28;20072;-69
2023/01/12 07:21:49;;;;;;;10.45;2.03;;;7.80;99.90;;;;;;5047432;28;20087;-69
2023/01/12 07:24:15;;;;;;;7.10;1.15;;;7.80;99.90;;;;;;5046912;28;20509;-69
2023/01/12 07:26:41;;;;;;;7.00;1.50;;;7.80;99.90;;;;;;5046010;28;20025;-69
2023/01/12 07:29:06;;;;;;;6.72;1.55;;;7.80;99.90;;;;;;5045139;28;20477;-69
2023/01/12 07:31:32;;;;;;;9.98;1.30;;;7.80;99.90;;;;;;5041800;28;20040;-69
2023/01/12 07:33:57;;;;;;;6.85;1.20;;;7.90;99.90;;;;;;5047551;28;20067;-68
2023/01/12 07:36:24;;;;;;;9.45;1.60;;;8.00;99.90;;;;;;5048233;28;20492;-69
2023/01/12 07:38:50;;;;;;;5.78;1.20;;;8.10;99.90;;;;;;5039679;28;20083;-69
2023/01/12 07:43:59;;;;;;;10.73;1.65;;;8.10;99.90;;;;;;5038082;28;20086;-69
2023/01/12 07:46:25;;;;;;;8.18;1.45;;;8.10;99.90;;;;;;5044260;28;20036;-70
2023/01/12 07:48:51;;;;;;;11.20;2.13;;;8.00;99.90;;;;;;5038449;28;20516;-69
2023/01/12 07:51:16;;;;;;;10.10;1.77;;;8.00;99.90;;;;;;5038089;28;20406;-70
2023/01/12 07:53:42;;;;;;;10.63;1.88;;;8.10;99.90;;;;;;5036584;28;20033;-70
2023/01/12 07:56:08;;;;;;;7.63;1.50;;;8.10;99.90;;;;;;5042774;28;20033;-67
2023/01/12 07:58:35;;;;;;;11.73;1.80;;;8.10;99.90;;;;;;5042758;28;20065;-69
2023/01/12 08:01:01;;;;;;;9.75;1.48;;;8.10;99.90;;;;;;5041149;28;20033;-68
2023/01/12 08:03:26;;;;;;;7.70;1.40;;;8.10;99.90;;;;;;5037996;28;20107;-68
2023/01/12 08:05:56;;;;;;;8.20;1.65;;;8.10;99.90;;;;;;5044154;28;20040;-68
2023/01/12 08:08:21;;;;;;;10.15;1.65;;;8.10;99.90;;;;;;5049149;28;20099;-69
2023/01/12 08:10:49;;;;;;;11.88;2.38;;;8.10;99.90;;;;;;5045084;28;20029;-69
2023/01/12 08:13:15;;;;;;;19.50;3.58;;;8.10;99.90;;;;;;5041495;28;20029;-69
2023/01/12 08:15:48;;;;;;;15.93;2.08;;;8.10;99.90;;;;;;5042144;28;20513;-69
2023/01/12 08:18:22;;;;;;;9.00;1.73;;;8.20;99.90;;;;;;5042806;28;20021;-69
2023/01/12 08:20:48;;;;;;;9.50;1.40;;;8.20;99.90;;;;;;5045354;28;20482;-68
2023/01/12 08:23:30;;;;;;;8.90;1.55;;;8.20;99.90;;;;;;5043972;28;20056;-68
2023/01/12 08:26:01;;;;;;;8.88;1.38;;;8.20;99.90;;;;;;5044304;28;20082;-69
2023/01/12 08:28:32;;;;;;;6.55;1.30;;;8.20;99.90;;;;;;5043481;28;20029;-68
2023/01/12 08:30:58;;;;;;;7.90;1.30;;;8.20;99.90;;;;;;5040325;28;20025;-68
2023/01/12 08:33:25;;;;;;;5.32;1.20;;;8.20;99.90;;;;;;5043307;28;20357;-68
2023/01/12 08:35:51;;;;;;;5.43;1.35;;;8.20;99.90;;;;;;5039252;28;20087;-69
2023/01/12 08:38:18;;;;;;;4.70;1.05;;;8.30;99.90;;;;;;5040928;28;20828;-69
2023/01/12 08:46:12;;;;;;;10.68;2.15;;;8.40;99.90;;;;;;5040980;28;20069;-68
2023/01/12 08:48:38;;;;;;;6.10;1.05;;;8.40;99.90;;;;;;5041697;28;20578;-69
2023/01/12 08:51:06;;;;;;;7.25;1.33;;;8.40;99.90;;;;;;5041206;28;20098;-69
2023/01/12 08:53:32;;;;;;;6.35;1.10;;;8.40;99.90;;;;;;5041026;28;20033;-69
2023/01/12 08:55:58;;;;;;;13.23;1.55;;;8.40;99.90;;;;;;5033225;28;20029;-69
2023/01/12 08:58:24;;;;;;;6.60;1.90;;;8.40;99.90;;;;;;5046635;28;20029;-68
2023/01/12 09:00:49;;;;;;;5.38;1.20;;;8.40;99.90;;;;;;5046597;28;20024;-69
2023/01/12 09:03:15;;;;;;;7.80;1.42;;;8.40;99.90;;;;;;5040551;28;20188;-68
2023/01/12 09:05:41;;;;;;;9.10;1.50;;;8.40;99.90;;;;;;5040296;28;20389;-68
2023/01/12 09:08:07;;;;;;;9.00;1.50;;;8.50;99.90;;;;;;5041286;28;20021;-68
2023/01/12 09:10:32;;;;;;;6.35;1.17;;;8.40;99.90;;;;;;5037259;28;20036;-68
2023/01/12 09:12:58;;;;;;;9.55;1.60;;;8.50;99.90;;;;;;5041065;28;20422;-68
2023/01/12 09:15:24;;;;;;;7.82;1.17;;;8.50;99.90;;;;;;5040081;28;20041;-69
2023/01/12 09:17:53;;;;;;;6.65;1.73;;;8.60;99.90;;;;;;5038217;28;20021;-69
2023/01/12 09:20:18;;;;;;;7.72;1.10;;;8.50;99.90;;;;;;5043815;28;20052;-69
2023/01/12 09:22:44;;;;;;;9.20;1.35;;;8.60;99.90;;;;;;5041202;28;20102;-68
2023/01/12 09:25:10;;;;;;;8.23;1.40;;;8.60;99.90;;;;;;5052239;28;20354;-68
2023/01/12 09:27:35;;;;;;;7.40;1.15;;;8.60;99.90;;;;;;5048595;28;20127;-68
2023/01/12 09:30:02;;;;;;;7.00;1.52;;;8.70;99.90;;;;;;5043208;28;20029;-68
2023/01/12 09:32:28;;;;;;;7.00;1.13;;;8.70;99.90;;;;;;5042966;28;20136;-69
2023/01/12 09:34:53;;;;;;;7.65;1.23;;;8.70;99.90;;;;;;5045220;28;20096;-68
2023/01/12 09:37:19;;;;;;;6.72;1.52;;;8.80;99.90;;;;;;5041888;28;20043;-69
2023/01/12 09:39:45;;;;;;;7.78;1.30;;;8.90;99.90;;;;;;5040707;28;20025;-68
2023/01/12 09:48:07;;;;;;;9.32;1.50;;;9.00;99.90;;;;;;5047270;28;20492;-69
2023/01/12 09:50:43;;;;;;;8.77;1.48;;;9.10;99.90;;;;;;5049473;28;20029;-70
2023/01/12 09:53:30;;;;;;;7.22;1.60;;;9.10;99.90;;;;;;5042698;28;20025;-67
2023/01/12 09:56:26;;;;;;;9.10;1.20;;;9.20;99.90;;;;;;5047508;28;20033;-69
2023/01/12 09:59:08;;;;;;;6.53;1.00;;;9.20;99.90;;;;;;5039991;28;20213;-68
2023/01/12 10:01:37;;;;;;;8.23;1.70;;;9.30;99.90;;;;;;5038394;28;20033;-68
2023/01/12 10:04:05;;;;;;;6.82;1.17;;;9.40;99.90;;;;;;5041239;28;20051;-68
2023/01/12 10:06:32;;;;;;;8.32;1.23;;;9.40;99.90;;;;;;5041169;28;20056;-69
2023/01/12 10:09:01;;;;;;;8.70;1.20;;;9.50;99.90;;;;;;5038595;28;20021;-69
2023/01/12 10:11:45;;;;;;;6.72;1.30;;;9.50;99.90;;;;;;5045072;28;20053;-68
2023/01/12 10:14:31;;;;;;;7.43;1.30;;;9.50;99.90;;;;;;5044719;28;20032;-69
2023/01/12 10:17:16;;;;;;;8.18;1.02;;;9.60;99.90;;;;;;5039533;28;20033;-68
2023/01/12 10:19:53;;;;;;;7.00;1.13;;;9.70;99.90;;;;;;5038500;28;20068;-69
2023/01/12 10:22:37;;;;;;;8.30;1.33;;;9.80;99.90;;;;;;5033213;28;20033;-68
2023/01/12 10:25:05;;;;;;;6.82;1.35;;;;;;;;;;5044146;28;20033;-69
2023/01/12 10:27:36;;;;;;;5.60;1.10;;;9.70;99.90;;;;;;5049089;28;20064;-69
2023/01/12 10:30:12;;;;;;;8.05;1.25;;;9.70;99.90;;;;;;5052297;28;20039;-68
2023/01/12 10:32:38;;;;;;;5.22;1.83;;;9.80;99.90;;;;;;5051055;28;20029;-70
2023/01/12 10:35:04;;;;;;;9.57;1.40;;;9.80;99.90;;;;;;5051110;28;20484;-69
2023/01/12 10:37:31;;;;;;;12.98;1.20;;;9.90;99.90;;;;;;5052426;28;20079;-70
2023/01/12 10:39:57;;;;;;;7.97;1.38;;;9.90;99.90;;;;;;5049899;28;20033;-69
2023/01/12 10:45:22;;;;;;;9.73;1.65;;;10.00;99.90;;;;;;5051794;28;20083;-70
2023/01/12 10:47:50;;;;;;;8.50;1.15;;;10.10;99.90;;;;;;5046875;28;20025;-68
2023/01/12 10:50:31;;;;;;;3.90;0.95;;;10.10;99.90;;;;;;5048620;28;20066;-70
2023/01/12 10:53:06;;;;;;;6.43;1.55;;;10.10;99.90;;;;;;5051856;28;20021;-68
2023/01/12 10:55:37;;;;;;;8.32;1.25;;;10.10;99.90;;;;;;5051829;28;20086;-69
2023/01/12 10:58:03;;;;;;;8.98;1.45;;;10.10;99.90;;;;;;5050051;28;20021;-69
2023/01/12 11:00:29;;;;;;;8.23;1.15;;;10.20;99.90;;;;;;5042104;28;20029;-68
2023/01/12 11:02:55;;;;;;;7.40;1.05;;;10.20;99.90;;;;;;5041796;28;20655;-68
2023/01/12 11:05:29;;;;;;;8.90;1.30;;;10.20;99.90;;;;;;5047262;28;20050;-68
2023/01/12 11:07:55;;;;;;;8.30;0.80;;;10.30;99.90;;;;;;5043151;28;20087;-68
2023/01/12 11:10:35;;;;;;;6.95;1.02;;;10.30;99.90;;;;;;5040913;28;20484;-69
2023/01/12 11:13:03;;;;;;;4.17;0.73;;;10.40;99.90;;;;;;5042274;28;20063;-73
2023/01/12 11:15:34;;;;;;;5.65;1.10;;;10.30;99.90;;;;;;5047774;28;20279;-71
2023/01/12 11:18:22;;;;;;;4.65;0.85;;;10.40;99.90;;;;;;5039500;28;20025;-67
2023/01/12 11:20:50;;;;;;;5.95;0.80;;;10.40;99.90;;;;;;5036260;28;20068;-71
2023/01/12 11:23:35;;;;;;;3.88;0.80;;;10.40;99.90;;;;;;5045582;28;20473;-70
2023/01/12 11:26:03;;;;;;;8.32;0.70;;;10.40;99.90;;;;;;5047392;28;20032;-69
2023/01/12 11:28:43;;;;;;;8.88;1.00;;;10.40;99.90;;;;;;5047940;28;20033;-74
2023/01/12 11:31:37;;;;;;;3.78;0.70;;;10.30;99.90;;;;;;5045779;28;20028;-69
2023/01/12 11:34:07;;;;;;;4.03;0.95;;;10.30;99.90;;;;;;5038044;28;20051;-69
2023/01/12 11:36:39;;;;;;;3.92;1.02;;;10.20;99.90;;;;;;5046672;28;20090;-70
2023/01/12 11:39:13;;;;;;;1.98;0.47;;;10.20;99.90;;;;;;5038076;28;20044;-70
2023/01/12 11:45:01;;;;;;;4.55;0.70;;;10.30;99.90;;;;;;5048598;28;20051;-73
2023/01/12 11:47:44;;;;;;;3.85;0.70;;;10.40;99.90;;;;;;5050075;28;20072;-72
2023/01/12 11:50:24;;;;;;;2.00;0.50;;;10.40;99.90;;;;;;5045059;28;20040;-69
2023/01/12 11:52:51;;;;;;;3.17;0.55;;;10.40;99.90;;;;;;5049371;28;20040;-68
2023/01/12 11:55:28;;;;;;;3.60;1.38;;;10.40;99.90;;;;;;5048633;28;20029;-69
2023/01/12 11:57:57;;;;;;;4.75;1.20;;;10.50;99.90;;;;;;5049381;28;20052;-69
2023/01/12 12:00:48;;;;;;;4.93;0.70;;;10.50;99.90;;;;;;5049918;28;20021;-69
2023/01/12 12:03:32;;;;;;;5.63;0.50;;;10.40;99.90;;;;;;5045606;28;20033;-69
2023/01/12 12:06:13;;;;;;;3.85;0.80;;;10.30;99.90;;;;;;5043428;28;20033;-69
2023/01/12 12:08:54;;;;;;;2.70;0.50;;;10.30;99.90;;;;;;5048404;28;20067;-69
2023/01/12 12:11:47;;;;;;;1.60;0.50;;;10.30;99.90;;;;;;5049926;28;20473;-69
2023/01/12 12:14:18;;;;;;;1.98;0.52;;;10.20;99.90;;;;;;5048038;28;20118;-69
2023/01/12 12:16:59;;;;;;;2.28;0.63;;;10.10;99.90;;;;;;5048323;28;20032;-68
2023/01/12 12:19:43;;;;;;;2.00;0.60;;;10.10;99.90;;;;;;5048695;28;20501;-70
2023/01/12 12:22:27;;;;;;;1.90;0.38;;;10.10;99.90;;;;;;5049624;28;20033;-70
2023/01/12 12:25:10;;;;;;;3.58;0.60;;;10.20;99.90;;;;;;5038574;28;20032;-70
2023/01/12 12:28:09;;;;;;;3.30;0.50;;;10.20;99.90;;;;;;5049314;28;20131;-69
2023/01/12 12:30:51;;;;;;;2.35;0.50;;;10.40;99.90;;;;;;5047615;28;20090;-70
2023/01/12 12:33:53;;;;;;;2.72;0.68;;;10.40;99.90;;;;;;5048781;28;20025;-72
2023/01/12 12:37:04;;;;;;;4.45;1.17;;;10.40;99.90;;;;;;5048823;28;20474;-69
2023/01/12 12:39:44;;;;;;;0.70;0.45;;;10.50;99.90;;;;;;4998976;28;20037;-69
2023/01/12 12:45:29;;;;;;;2.28;0.55;;;10.50;99.90;;;;;;5045735;28;20040;-70
2023/01/12 12:48:13;;;;;;;2.30;0.50;;;10.40;99.90;;;;;;5047645;28;20100;-69
2023/01/12 12:50:51;;;;;;;0.85;0.38;;;10.40;99.90;;;;;;5048767;28;20083;-69
2023/01/12 12:53:31;;;;;;;5.57;0.50;;;10.40;99.90;;;;;;5048385;28;20477;-69
2023/01/12 12:56:02;;;;;;;1.67;0.68;;;10.40;99.90;;;;;;5048160;28;20032;-69
2023/01/12 12:58:38;;;;;;;3.05;0.60;;;10.40;99.90;;;;;;5047612;28;20029;-69
2023/01/12 13:01:19;;;;;;;4.93;1.33;;;10.50;99.90;;;;;;5048899;28;20083;-69
2023/01/12 13:03:48;;;;;;;4.88;0.60;;;10.50;99.90;;;;;;5045744;28;20037;-69
2023/01/12 13:06:33;;;;;;;2.35;0.40;;;10.50;99.90;;;;;;5047696;28;20358;-69
2023/01/12 13:09:09;;;;;;;1.52;0.50;;;10.50;99.90;;;;;;5047967;28;20025;-69
2023/01/12 13:11:57;;;;;;;1.52;0.30;;;10.60;99.90;;;;;;5048243;28;20154;-69
2023/01/12 13:14:29;;;;;;;2.30;0.45;;;10.60;99.90;;;;;;5047891;28;20057;-69
2023/01/12 13:17:00;;;;;;;1.38;0.40;;;10.60;99.90;;;;;;5043950;28;20090;-69
2023/01/12 13:19:40;;;;;;;2.20;0.40;;;10.60;99.90;;;;;;5040079;28;20525;-69
2023/01/12 13:22:31;;;;;;;3.10;0.40;;;10.60;99.90;;;;;;5047186;28;20104;-69
2023/01/12 13:25:08;;;;;;;3.70;0.50;;;10.50;99.90;;;;;;5041524;28;20438;-69
2023/01/12 13:27:54;;;;;;;3.60;0.60;;;10.50;99.90;;;;;;5045321;28;20025;-69
2023/01/12 13:30:29;;;;;;;2.72;0.55;;;10.50;99.90;;;;;;5048354;28;20108;-69
2023/01/12 13:32:58;;;;;;;3.20;0.50;;;10.50;99.90;;;;;;5047695;28;20048;-69
2023/01/12 13:35:26;;;;;;;4.20;0.55;;;10.40;99.90;;;;;;5047911;28;20529;-69
2023/01/12 13:38:18;;;;;;;2.45;0.50;;;10.40;99.90;;;;;;5045492;28;20630;-69
2023/01/12 13:40:43;;;;;;;1.83;0.73;;;10.40;99.90;;;;;;5039999;28;20033;-69
2023/01/12 13:43:15;;;;;;;3.58;0.70;;;10.40;99.90;;;;;;5046759;28;20470;-69
2023/01/12 13:46:16;;;;;;;3.67;0.77;;;10.50;99.90;;;;;;5047392;28;20428;-70
2023/01/12 13:48:45;;;;;;;1.85;0.57;;;10.40;99.90;;;;;;5046391;28;20096;-70
2023/01/12 13:51:17;;;;;;;2.72;0.63;;;10.40;99.90;;;;;;5039043;28;20036;-70